Friday, January 19, 2018, 2:32 AM EST
Back to Local

KORH, Worcester Regional Airport

Location: Worcester, MA, United States Lat: 42.267
Local Time: 2:32 AM EST ( 7:32 GMT) Lon: -71.867
Time Zone: US/Eastern Elev: 1010 ft

Show me the last for .
Show Coded

Time T Td Feel RH Dir Speed Gust Alt SLP Vis Weather Sky Remarks
2018-01-19 01:54 17 11 3 76 270° 14 - 29.89 29.94 10 CLR None
2018-01-19 00:54 16 11 1 80 270° 15 - 29.88 29.93 10 CLR 6-hr Min Temp (1am): 16.0°F
6-hr Max Temp (1am): 21.0°F
2018-01-18 23:54 16 11 2 80 270° 13 - 29.89 29.95 10 CLR 24-hr Min Temp (12am): 12.0°F
24-hr Max Temp (12am): 25.0°F
2018-01-18 22:54 17 11 4 76 290° 13 - 29.91 29.96 10 CLR None
2018-01-18 21:54 17 10 6 73 290° 9 - 29.91 29.97 10 CLR None
2018-01-18 20:54 18 11 6 73 270° 10 - 29.90 29.96 10 CLR None
2018-01-18 19:54 19 11 9 70 280° 8 - 29.89 29.95 10 CLR None
2018-01-18 18:54 21 13 11 70 300° 9 - 29.88 29.93 10 CLR 6-hr Min Temp (7pm): 21.0°F
6-hr Max Temp (7pm): 25.0°F
2018-01-18 18:41 21 12 13 67 300° 7 - 29.87 - 10 SCT023 None
2018-01-18 17:54 24 14 13 64 330° 12 - 29.87 29.92 10 OVC024 None
2018-01-18 16:54 24 15 17 68 330° 6 - 29.84 29.89 10 OVC023 None
2018-01-18 16:31 24 14 14 64 320° 9 - 29.83 - 10 BKN024 None
2018-01-18 15:54 24 14 11 64 320° 14 17 29.82 29.87 10 CLR None
2018-01-18 14:54 24 13 12 61 300° 13 - 29.81 29.85 10 CLR None
2018-01-18 13:54 24 12 9 59 300° 13 21 29.81 29.86 10 CLR None
2018-01-18 12:54 23 12 11 62 300° 14 - 29.84 29.89 10 CLR 6-hr Min Temp (1pm): 12.0°F
6-hr Max Temp (1pm): 23.0°F
2018-01-18 11:54 22 11 11 62 300° 10 - 29.88 29.93 10 CLR None
2018-01-18 10:54 21 10 6 61 310° 15 18 29.90 29.95 10 CLR None
2018-01-18 09:54 19 8 6 61 310° 13 - 29.91 29.96 10 CLR None
2018-01-18 08:54 17 6 3 61 310° 14 - 29.91 29.95 10 CLR None
2018-01-18 07:54 13 5 1 69 290° 9 - 29.91 29.96 10 CLR None
2018-01-18 06:54 13 5 -2 69 280° 13 - 29.91 29.96 10 CLR 24-hr Precip Total (7am): 0.17"
6-hr Min Temp (7am): 12.9°F
6-hr Max Temp (7am): 21.0°F
2018-01-18 05:54 14 6 -3 70 300° 18 - 29.90 29.95 10 CLR None
2018-01-18 04:54 14 7 -3 73 280° 17 - 29.92 29.97 10 CLR None
2018-01-18 03:54 14 9 0 79 270° 12 - 29.93 29.98 10 CLR None
2018-01-18 02:54 15 11 3 83 250° 9 - 29.97 30.02 10 CLR None

Support USWX by starting your Amazon purchase here.